Time;durP1;ratioP1;P1;durP2;ratioP2;P2;SDS_P1;SDS_P2;PMS_P1;PMS_P2;Temp;Humidity;BMP_temperature;BMP_pressure;BME280_temperature;BME280_humidity;BME280_pressure;Samples;Min_cycle;Max_cycle;Signal;HPM_P1;HPM_P2
2024/04/15 00:00:10;;;;;;;6.45;1.55;;;12.40;92.60;;;;;;5478932;26;20002;-76
2024/04/15 00:02:36;;;;;;;5.10;1.15;;;12.40;92.80;;;;;;5461349;26;19998;-77
2024/04/15 00:05:02;;;;;;;8.63;1.30;;;12.30;93.00;;;;;;5457472;26;20039;-77
2024/04/15 00:07:28;;;;;;;6.20;1.20;;;12.30;93.30;;;;;;5471530;26;20017;-76
2024/04/15 00:09:53;;;;;;;4.60;1.30;;;12.30;93.30;;;;;;5469173;26;20002;-76
2024/04/15 00:12:19;;;;;;;4.82;0.93;;;12.20;93.30;;;;;;5457113;26;20358;-77
2024/04/15 00:14:45;;;;;;;6.53;1.40;;;12.10;93.50;;;;;;5463574;26;20009;-76
2024/04/15 00:17:10;;;;;;;7.13;1.67;;;12.00;93.60;;;;;;5472151;26;20025;-76
2024/04/15 00:19:37;;;;;;;7.45;1.48;;;11.90;93.60;;;;;;5443769;26;19999;-76
2024/04/15 00:22:02;;;;;;;7.60;1.50;;;11.70;93.70;;;;;;5471583;26;20463;-76
2024/04/15 00:24:28;;;;;;;3.97;1.52;;;11.70;93.90;;;;;;5457192;26;20013;-76
2024/04/15 00:26:54;;;;;;;7.63;2.00;;;11.60;94.10;;;;;;5459553;26;20018;-76
2024/04/15 00:29:19;;;;;;;8.68;2.47;;;11.60;94.50;;;;;;5470694;26;19999;-76
2024/04/15 00:31:45;;;;;;;8.52;1.92;;;11.50;94.30;;;;;;5464408;26;20016;-76
2024/04/15 00:34:11;;;;;;;4.85;2.17;;;11.50;94.40;;;;;;5477685;26;20002;-76
2024/04/15 00:36:36;;;;;;;9.13;2.38;;;11.40;94.60;;;;;;5461563;26;20365;-76
2024/04/15 00:39:02;;;;;;;9.27;2.33;;;11.40;94.80;;;;;;5479237;26;20010;-76
2024/04/15 00:41:28;;;;;;;8.32;2.30;;;11.30;94.90;;;;;;5457002;26;20050;-76
2024/04/15 00:43:53;;;;;;;6.05;2.10;;;11.20;95.00;;;;;;5481048;26;19998;-76
2024/04/15 00:46:19;;;;;;;12.13;2.40;;;11.20;95.20;;;;;;5456161;26;20432;-76
2024/04/15 00:48:46;;;;;;;7.75;2.47;;;11.20;95.30;;;;;;5462926;26;19999;-76
2024/04/15 00:51:13;;;;;;;8.80;2.10;;;11.10;95.50;;;;;;5452902;26;20092;-76
2024/04/15 00:53:40;;;;;;;5.25;2.08;;;11.10;95.70;;;;;;5470320;26;20132;-76
2024/04/15 00:56:07;;;;;;;10.48;2.65;;;11.00;95.70;;;;;;5455023;26;20003;-76
2024/04/15 00:58:33;;;;;;;8.15;2.75;;;11.00;96.00;;;;;;5473415;26;20367;-76
2024/04/15 01:01:00;;;;;;;7.45;2.30;;;11.00;96.40;;;;;;5465661;26;20220;-76
2024/04/15 01:03:27;;;;;;;9.93;2.83;;;11.00;96.30;;;;;;5470503;26;20002;-77
2024/04/15 01:05:53;;;;;;;8.57;2.70;;;11.00;96.40;;;;;;5458325;26;20030;-76
2024/04/15 01:08:19;;;;;;;8.40;2.65;;;10.90;96.60;;;;;;5481471;26;20014;-76
2024/04/15 01:10:45;;;;;;;8.55;2.72;;;10.90;96.70;;;;;;5456124;26;20458;-76
2024/04/15 01:13:11;;;;;;;7.40;2.35;;;10.80;96.80;;;;;;5460874;26;20018;-76
2024/04/15 01:15:37;;;;;;;8.20;2.42;;;10.80;96.90;;;;;;5444034;26;20452;-76
2024/04/15 01:18:03;;;;;;;9.30;2.50;;;10.70;96.90;;;;;;5459813;26;20013;-76
2024/04/15 01:20:28;;;;;;;5.93;2.33;;;10.70;97.20;;;;;;5479279;26;20014;-76
2024/04/15 01:23:04;;;;;;;8.18;2.63;;;10.60;97.20;;;;;;5457969;26;20013;-76
2024/04/15 01:25:30;;;;;;;7.30;2.40;;;10.60;97.40;;;;;;5456476;26;20017;-76
2024/04/15 01:27:57;;;;;;;6.28;2.65;;;10.60;97.50;;;;;;5468939;26;20002;-76
2024/04/15 01:30:23;;;;;;;9.43;2.58;;;10.60;97.70;;;;;;5468820;26;20013;-76
2024/04/15 01:32:49;;;;;;;11.73;2.88;;;10.60;97.80;;;;;;5454987;26;20666;-76
2024/04/15 01:35:15;;;;;;;7.43;2.75;;;10.60;97.90;;;;;;5461848;26;20002;-76
2024/04/15 01:37:41;;;;;;;7.70;2.50;;;10.60;98.10;;;;;;5469845;26;20046;-76
2024/04/15 01:40:08;;;;;;;6.65;2.40;;;10.60;98.20;;;;;;5443423;26;19995;-76
2024/04/15 01:42:33;;;;;;;6.80;2.35;;;10.60;98.40;;;;;;5472490;26;20013;-76
2024/04/15 01:44:59;;;;;;;9.13;2.95;;;10.60;98.50;;;;;;5467910;26;19999;-76
2024/04/15 01:47:25;;;;;;;6.75;2.13;;;10.60;98.60;;;;;;5468698;26;20014;-76
2024/04/15 01:49:50;;;;;;;9.10;2.45;;;10.60;98.70;;;;;;5454703;26;20038;-76
2024/04/15 01:52:16;;;;;;;8.82;2.60;;;10.60;98.70;;;;;;5480539;26;20467;-76
2024/04/15 01:54:43;;;;;;;9.55;2.65;;;10.60;98.80;;;;;;5480490;26;20004;-76
2024/04/15 01:57:09;;;;;;;9.50;2.30;;;10.60;98.90;;;;;;5481547;26;20006;-76
2024/04/15 01:59:35;;;;;;;10.88;2.60;;;10.60;98.90;;;;;;5457766;26;20359;-76
2024/04/15 02:02:00;;;;;;;8.80;2.53;;;10.50;98.90;;;;;;5470597;26;20075;-76
2024/04/15 02:04:26;;;;;;;7.53;2.47;;;10.50;99.10;;;;;;5461362;26;20478;-76
2024/04/15 02:06:52;;;;;;;8.52;2.75;;;10.50;99.20;;;;;;5481131;26;20074;-76
2024/04/15 02:09:18;;;;;;;11.65;3.38;;;10.50;99.30;;;;;;5467398;26;20444;-76
2024/04/15 02:11:43;;;;;;;9.13;2.92;;;10.50;99.30;;;;;;5468961;26;20523;-76
2024/04/15 02:14:09;;;;;;;6.85;2.97;;;10.50;99.30;;;;;;5454955;26;20546;-76
2024/04/15 02:16:35;;;;;;;11.13;3.05;;;10.50;99.40;;;;;;5481282;26;19998;-76
2024/04/15 02:19:00;;;;;;;8.90;2.30;;;10.40;99.40;;;;;;5480083;26;20003;-76
2024/04/15 02:21:26;;;;;;;7.35;2.30;;;10.40;99.50;;;;;;5463979;26;20463;-76
2024/04/15 02:23:51;;;;;;;9.20;3.20;;;10.30;99.50;;;;;;5468976;26;20013;-76
2024/04/15 02:26:17;;;;;;;6.15;2.80;;;10.30;99.70;;;;;;5442610;26;19999;-76
2024/04/15 02:28:43;;;;;;;7.65;3.45;;;10.30;99.80;;;;;;5467328;26;20017;-76
2024/04/15 02:31:08;;;;;;;8.40;2.70;;;10.40;99.90;;;;;;5453256;26;20507;-76
2024/04/15 02:33:34;;;;;;;10.40;3.15;;;10.30;99.90;;;;;;5459710;26;20448;-76
2024/04/15 02:36:00;;;;;;;8.60;3.42;;;10.30;99.90;;;;;;5469623;26;20018;-76
2024/04/15 02:38:25;;;;;;;8.98;3.38;;;10.30;99.90;;;;;;5459980;26;20427;-76
2024/04/15 02:40:52;;;;;;;9.73;3.30;;;10.30;99.90;;;;;;5454945;26;20463;-76
2024/04/15 02:43:18;;;;;;;9.82;3.83;;;10.30;99.90;;;;;;5479987;26;19998;-76
2024/04/15 02:45:45;;;;;;;9.32;3.40;;;10.20;99.90;;;;;;5480062;26;20002;-76
2024/04/15 02:48:11;;;;;;;9.60;3.78;;;10.20;99.90;;;;;;5469695;26;20132;-76
2024/04/15 02:50:37;;;;;;;7.78;2.92;;;10.20;99.90;;;;;;5464908;26;19998;-76
2024/04/15 02:53:02;;;;;;;13.88;3.72;;;10.20;99.90;;;;;;5454717;26;20003;-76
2024/04/15 02:55:28;;;;;;;10.63;4.00;;;10.20;99.90;;;;;;5469889;26;19998;-76
2024/04/15 02:57:53;;;;;;;9.93;4.20;;;10.20;99.90;;;;;;5464210;26;20332;-76
2024/04/15 03:00:19;;;;;;;9.68;3.30;;;10.20;99.90;;;;;;5472200;26;20003;-76
2024/04/15 03:02:45;;;;;;;11.25;3.92;;;10.20;99.90;;;;;;5461932;26;20087;-75
2024/04/15 03:05:10;;;;;;;7.55;3.55;;;10.10;99.90;;;;;;5483289;26;20002;-76
2024/04/15 03:07:36;;;;;;;9.07;3.40;;;10.20;99.90;;;;;;5483740;26;20004;-76
2024/04/15 03:10:02;;;;;;;11.85;4.35;;;10.10;99.90;;;;;;5482529;26;20002;-76
2024/04/15 03:12:27;;;;;;;8.85;3.30;;;10.10;99.90;;;;;;5458019;26;20017;-75
2024/04/15 03:14:53;;;;;;;12.23;3.95;;;10.10;99.90;;;;;;5462251;26;19999;-76
2024/04/15 03:17:19;;;;;;;10.35;3.78;;;10.10;99.90;;;;;;5472966;26;20506;-76
2024/04/15 03:19:44;;;;;;;10.10;3.97;;;10.10;99.90;;;;;;5463319;26;20002;-77
2024/04/15 03:22:10;;;;;;;11.80;4.90;;;10.10;99.90;;;;;;5484104;26;20002;-76
2024/04/15 03:24:36;;;;;;;12.52;4.03;;;10.10;99.90;;;;;;5482785;26;20013;-76
2024/04/15 03:27:02;;;;;;;11.95;4.63;;;10.10;99.90;;;;;;5459446;26;20003;-76
2024/04/15 03:29:28;;;;;;;12.93;5.22;;;10.00;99.90;;;;;;5481147;26;20470;-76
2024/04/15 03:31:53;;;;;;;7.45;4.20;;;10.10;99.90;;;;;;5462544;26;20474;-76
2024/04/15 03:34:19;;;;;;;16.33;5.35;;;10.10;99.90;;;;;;5471916;26;19998;-76
2024/04/15 03:36:45;;;;;;;11.00;4.35;;;10.00;99.90;;;;;;5463765;26;20002;-76
2024/04/15 03:39:11;;;;;;;12.13;4.63;;;10.00;99.90;;;;;;5480714;26;20590;-76
2024/04/15 03:41:36;;;;;;;14.48;5.28;;;10.00;99.90;;;;;;5483914;26;19998;-76
2024/04/15 03:44:02;;;;;;;12.77;4.90;;;9.90;99.90;;;;;;5482062;26;19998;-76
2024/04/15 03:46:28;;;;;;;14.25;5.40;;;9.90;99.90;;;;;;5457726;26;20014;-76
2024/04/15 03:48:54;;;;;;;11.43;4.95;;;9.80;99.90;;;;;;5461630;26;20006;-77
2024/04/15 03:51:19;;;;;;;10.35;4.60;;;9.80;99.90;;;;;;5453629;26;20021;-76
2024/04/15 03:53:45;;;;;;;11.13;5.18;;;9.80;99.90;;;;;;5471601;26;20866;-76
2024/04/15 03:56:11;;;;;;;11.30;4.82;;;9.80;99.90;;;;;;5467753;26;20002;-76
2024/04/15 03:58:36;;;;;;;11.02;4.97;;;9.80;99.90;;;;;;5476418;26;20618;-76
2024/04/15 04:01:02;;;;;;;9.07;4.47;;;9.70;99.90;;;;;;5463929;26;20042;-76
2024/04/15 04:03:28;;;;;;;13.35;4.70;;;9.80;99.90;;;;;;5478104;26;20002;-76
2024/04/15 04:05:54;;;;;;;10.57;4.85;;;9.70;99.90;;;;;;5459543;26;20082;-76
2024/04/15 04:08:20;;;;;;;13.20;4.53;;;9.70;99.90;;;;;;5457587;26;20007;-76
2024/04/15 04:10:46;;;;;;;15.05;5.35;;;9.60;99.90;;;;;;5471563;26;20056;-76
2024/04/15 04:13:12;;;;;;;12.05;4.80;;;9.50;99.90;;;;;;5466113;26;20033;-76
2024/04/15 04:15:38;;;;;;;14.35;5.00;;;9.60;99.90;;;;;;5482792;26;20348;-76
2024/04/15 04:18:07;;;;;;;9.50;4.28;;;9.50;99.90;;;;;;5464862;26;20013;-76
2024/04/15 04:20:33;;;;;;;11.40;4.88;;;9.50;99.90;;;;;;5471517;26;20082;-76
2024/04/15 04:22:59;;;;;;;14.07;4.53;;;9.50;99.90;;;;;;5460638;26;20488;-76
2024/04/15 04:25:25;;;;;;;12.85;4.50;;;9.50;99.90;;;;;;5456354;26;20406;-76
2024/04/15 04:27:51;;;;;;;14.32;5.22;;;9.40;99.90;;;;;;5457089;26;20461;-76
2024/04/15 04:30:17;;;;;;;13.25;4.25;;;9.40;99.90;;;;;;5482082;26;20396;-76
2024/04/15 04:32:43;;;;;;;10.27;4.70;;;9.30;99.90;;;;;;5456646;26;20013;-76
2024/04/15 04:35:09;;;;;;;12.10;4.20;;;9.30;99.90;;;;;;5481941;26;20010;-76
2024/04/15 04:37:35;;;;;;;10.43;4.15;;;9.30;99.90;;;;;;5476790;26;20013;-76
2024/04/15 04:40:01;;;;;;;14.98;4.03;;;9.30;99.90;;;;;;5460353;26;20051;-76
2024/04/15 04:42:27;;;;;;;11.40;4.25;;;9.30;99.90;;;;;;5463540;26;20002;-76
2024/04/15 04:44:56;;;;;;;10.90;4.25;;;9.20;99.90;;;;;;5472695;26;20486;-76
2024/04/15 04:47:22;;;;;;;12.20;3.78;;;9.20;99.90;;;;;;5459897;26;20018;-76
2024/04/15 04:49:52;;;;;;;11.10;4.00;;;9.20;99.90;;;;;;5443428;26;20047;-76
2024/04/15 04:52:18;;;;;;;13.57;3.73;;;9.20;99.90;;;;;;5459640;26;20007;-76
2024/04/15 04:54:46;;;;;;;13.07;4.22;;;9.20;99.90;;;;;;5457119;26;20563;-76
2024/04/15 04:57:12;;;;;;;11.60;4.28;;;9.20;99.90;;;;;;5481612;26;19998;-76
2024/04/15 04:59:37;;;;;;;15.75;3.78;;;9.10;99.90;;;;;;5481455;26;20013;-76
2024/04/15 05:02:03;;;;;;;9.63;3.50;;;9.20;99.90;;;;;;5456101;26;20482;-76
2024/04/15 05:04:29;;;;;;;13.35;4.28;;;9.20;99.90;;;;;;5463372;26;20011;-76
2024/04/15 05:06:55;;;;;;;10.90;3.80;;;9.20;99.90;;;;;;5471468;26;20335;-76
2024/04/15 05:09:20;;;;;;;13.95;3.60;;;9.20;99.90;;;;;;5446947;26;19999;-76
2024/04/15 05:11:46;;;;;;;11.70;3.60;;;9.20;99.90;;;;;;5470441;26;19998;-76
2024/04/15 05:14:12;;;;;;;10.32;3.38;;;9.20;99.90;;;;;;5453213;26;19998;-76
2024/04/15 05:16:38;;;;;;;11.52;3.72;;;9.30;99.90;;;;;;5479947;26;20002;-76
2024/04/15 05:19:03;;;;;;;13.70;3.70;;;9.20;99.90;;;;;;5466073;26;20009;-76
2024/04/15 05:21:29;;;;;;;13.45;4.03;;;9.30;99.90;;;;;;5476148;26;20006;-77
2024/04/15 05:23:55;;;;;;;11.30;3.67;;;9.20;99.90;;;;;;5480919;26;20002;-77
2024/04/15 05:26:20;;;;;;;7.70;3.30;;;9.20;99.90;;;;;;5479811;26;20539;-77
2024/04/15 05:28:46;;;;;;;11.65;3.50;;;9.20;99.90;;;;;;5479529;26;20066;-76
2024/04/15 05:31:11;;;;;;;14.90;3.38;;;9.20;99.90;;;;;;5478317;26;20039;-77
2024/04/15 05:33:37;;;;;;;14.10;3.50;;;9.10;99.90;;;;;;5480380;26;20075;-76
2024/04/15 05:36:03;;;;;;;10.00;2.90;;;9.10;99.90;;;;;;5478648;26;20359;-76
2024/04/15 05:38:32;;;;;;;10.90;3.25;;;9.10;99.90;;;;;;5479884;26;20073;-76
2024/04/15 05:40:57;;;;;;;12.50;3.75;;;9.10;99.90;;;;;;5475141;26;20024;-77
2024/04/15 05:43:25;;;;;;;9.35;3.20;;;9.10;99.90;;;;;;5479749;26;20009;-76
2024/04/15 05:45:51;;;;;;;9.38;3.22;;;9.10;99.90;;;;;;5478976;26;20002;-76
2024/04/15 05:48:17;;;;;;;11.10;3.00;;;9.10;99.90;;;;;;5479208;26;20363;-76
2024/04/15 05:50:44;;;;;;;12.55;3.33;;;9.20;99.90;;;;;;5479086;26;19998;-76
2024/04/15 05:53:09;;;;;;;10.32;3.30;;;9.10;99.90;;;;;;5468194;26;20460;-77
2024/04/15 05:55:35;;;;;;;10.07;2.85;;;9.10;99.90;;;;;;5467917;26;20073;-77
2024/04/15 05:58:01;;;;;;;10.05;3.38;;;9.10;99.90;;;;;;5454978;26;19995;-76
2024/04/15 06:00:27;;;;;;;13.15;3.22;;;9.10;99.90;;;;;;5479884;26;19994;-77
2024/04/15 06:02:52;;;;;;;11.88;3.13;;;9.10;99.90;;;;;;5479362;26;20435;-76
2024/04/15 06:05:19;;;;;;;12.38;3.60;;;9.20;99.90;;;;;;5479002;26;19998;-76
2024/04/15 06:07:45;;;;;;;9.70;3.35;;;9.20;99.90;;;;;;5479101;26;19994;-77
2024/04/15 06:10:10;;;;;;;13.52;3.10;;;9.20;99.90;;;;;;5472869;26;20333;-76
2024/04/15 06:12:36;;;;;;;12.35;3.30;;;9.20;99.90;;;;;;5481176;26;20370;-77
2024/04/15 06:15:02;;;;;;;10.57;3.17;;;9.20;99.90;;;;;;5476883;26;20624;-77
2024/04/15 06:17:28;;;;;;;10.35;3.38;;;9.20;99.90;;;;;;5480911;26;20427;-77
2024/04/15 06:19:54;;;;;;;10.85;2.92;;;9.20;99.90;;;;;;5479173;26;20367;-76
2024/04/15 06:22:20;;;;;;;10.95;3.10;;;9.30;99.90;;;;;;5472592;26;20026;-76
2024/04/15 06:24:46;;;;;;;12.98;3.80;;;9.30;99.90;;;;;;5479446;26;20005;-76
2024/04/15 06:27:11;;;;;;;11.70;3.58;;;9.40;99.90;;;;;;5480532;26;20443;-76
2024/04/15 06:29:38;;;;;;;10.98;3.10;;;9.40;99.90;;;;;;5479905;26;20485;-76
2024/04/15 06:32:04;;;;;;;13.82;3.40;;;9.50;99.90;;;;;;5458559;26;20072;-76
2024/04/15 06:34:30;;;;;;;6.53;2.85;;;9.50;99.90;;;;;;5478603;26;19998;-76
2024/04/15 06:36:57;;;;;;;15.07;3.28;;;9.60;99.90;;;;;;5478954;26;20524;-76
2024/04/15 06:39:23;;;;;;;11.60;3.63;;;9.70;99.90;;;;;;5479636;26;20005;-76
2024/04/15 06:41:49;;;;;;;14.68;3.63;;;9.70;99.90;;;;;;5480323;26;20030;-76
2024/04/15 06:44:14;;;;;;;11.07;3.72;;;9.70;99.90;;;;;;5478825;26;20336;-75
2024/04/15 06:46:40;;;;;;;8.23;2.75;;;9.80;99.90;;;;;;5467318;26;20070;-75
2024/04/15 06:49:06;;;;;;;12.82;3.47;;;9.90;99.90;;;;;;5471259;26;20023;-75
2024/04/15 06:51:33;;;;;;;9.02;3.03;;;9.90;99.90;;;;;;5476084;26;20021;-76
2024/04/15 06:53:59;;;;;;;10.32;3.15;;;9.90;99.90;;;;;;5474323;26;20006;-76
2024/04/15 06:56:25;;;;;;;7.57;2.97;;;10.00;99.90;;;;;;5477990;26;20002;-76
2024/04/15 06:58:50;;;;;;;10.02;3.30;;;10.10;99.90;;;;;;5453389;26;19998;-76
2024/04/15 07:01:16;;;;;;;10.48;3.13;;;10.10;99.90;;;;;;5460565;26;20448;-76
2024/04/15 07:03:41;;;;;;;10.38;2.97;;;10.20;99.90;;;;;;5469343;26;19995;-77
2024/04/15 07:06:07;;;;;;;12.73;3.35;;;10.30;99.90;;;;;;5466976;26;19994;-76
2024/04/15 07:08:33;;;;;;;8.80;3.20;;;10.40;99.90;;;;;;5478575;26;20002;-76
2024/04/15 07:10:59;;;;;;;10.48;3.00;;;10.50;99.90;;;;;;5447747;26;20134;-76
2024/04/15 07:13:24;;;;;;;10.05;3.08;;;10.50;99.90;;;;;;5462656;26;20468;-76
2024/04/15 07:15:50;;;;;;;10.93;2.58;;;10.60;99.90;;;;;;5476294;26;20009;-75
2024/04/15 07:18:15;;;;;;;11.00;2.95;;;10.70;99.90;;;;;;5480016;26;20393;-75
2024/04/15 07:20:45;;;;;;;9.05;3.05;;;10.80;99.90;;;;;;5477952;26;20447;-76
2024/04/15 07:23:10;;;;;;;11.38;2.75;;;10.80;99.90;;;;;;5480316;26;20435;-75
2024/04/15 07:25:36;;;;;;;9.77;2.60;;;10.80;99.90;;;;;;5476138;26;20047;-76
2024/04/15 07:28:02;;;;;;;8.60;2.55;;;10.90;99.90;;;;;;5457137;26;19998;-76
2024/04/15 07:30:27;;;;;;;9.90;2.67;;;10.90;99.90;;;;;;5478895;26;20377;-76
2024/04/15 07:32:53;;;;;;;9.73;2.95;;;11.00;99.90;;;;;;5455103;26;20074;-76
2024/04/15 07:35:19;;;;;;;9.93;3.10;;;11.00;99.90;;;;;;5449133;26;20079;-76
2024/04/15 07:37:45;;;;;;;10.77;2.85;;;11.10;99.90;;;;;;5474813;26;20435;-76
2024/04/15 07:40:11;;;;;;;9.48;1.95;;;11.30;99.90;;;;;;5471073;26;20008;-76
2024/04/15 07:42:39;;;;;;;8.55;2.50;;;11.30;99.90;;;;;;5460113;26;19994;-76
2024/04/15 07:45:05;;;;;;;7.45;2.30;;;11.40;99.90;;;;;;5463974;26;20010;-76
2024/04/15 07:47:31;;;;;;;9.52;2.17;;;11.30;99.90;;;;;;5469617;26;20002;-76
2024/04/15 07:49:57;;;;;;;10.23;2.72;;;11.40;99.90;;;;;;5451746;26;19998;-76
2024/04/15 07:52:23;;;;;;;8.85;2.28;;;11.40;99.90;;;;;;5468160;26;20072;-77
2024/04/15 07:54:48;;;;;;;9.75;2.63;;;11.40;99.90;;;;;;5458560;26;20014;-75
2024/04/15 07:57:14;;;;;;;6.35;1.95;;;11.30;99.90;;;;;;5457475;26;19998;-75
2024/04/15 07:59:39;;;;;;;8.40;2.50;;;11.40;99.90;;;;;;5478211;26;20013;-76
2024/04/15 08:02:05;;;;;;;6.25;1.90;;;11.40;99.90;;;;;;5478047;26;20012;-76
2024/04/15 08:04:31;;;;;;;6.60;2.20;;;11.50;99.90;;;;;;5479292;26;20026;-76
2024/04/15 08:06:56;;;;;;;6.72;2.10;;;11.50;99.90;;;;;;5456350;26;20494;-76
2024/04/15 08:09:22;;;;;;;8.52;2.45;;;11.60;99.90;;;;;;5470363;26;20452;-75
2024/04/15 08:11:48;;;;;;;10.88;2.90;;;11.60;99.90;;;;;;5482168;26;19990;-76
2024/04/15 08:14:13;;;;;;;7.82;2.42;;;11.70;99.90;;;;;;5476552;26;20003;-76
2024/04/15 08:16:39;;;;;;;7.95;2.10;;;11.60;99.90;;;;;;5478612;26;20005;-74
2024/04/15 08:19:04;;;;;;;9.35;2.55;;;11.70;99.90;;;;;;5478307;26;20009;-75
2024/04/15 08:21:30;;;;;;;9.02;2.58;;;11.70;99.90;;;;;;5478710;26;20012;-75
2024/04/15 08:23:56;;;;;;;9.63;2.35;;;11.80;99.90;;;;;;5477948;26;19998;-76
2024/04/15 08:26:22;;;;;;;9.15;2.55;;;11.90;99.90;;;;;;5478242;26;20002;-76
2024/04/15 08:28:47;;;;;;;8.43;2.45;;;11.90;99.90;;;;;;5480610;26;20008;-75
2024/04/15 08:31:13;;;;;;;7.70;2.75;;;12.00;99.90;;;;;;5475035;26;19998;-76
2024/04/15 08:33:39;;;;;;;7.20;2.83;;;12.00;99.90;;;;;;5482003;26;20001;-76
2024/04/15 08:36:05;;;;;;;10.35;3.10;;;12.00;99.90;;;;;;5476273;26;20006;-76
2024/04/15 08:38:31;;;;;;;8.95;3.08;;;12.00;99.90;;;;;;5482831;26;20005;-75
2024/04/15 08:41:00;;;;;;;9.43;2.80;;;12.00;99.90;;;;;;5481302;26;20030;-75
2024/04/15 08:43:26;;;;;;;8.88;3.10;;;11.90;99.90;;;;;;5477456;26;20061;-76
2024/04/15 08:45:58;;;;;;;9.98;2.53;;;11.90;99.90;;;;;;5467280;26;20006;-74
2024/04/15 08:48:24;;;;;;;8.95;2.95;;;12.00;99.90;;;;;;5471056;26;20450;-75
2024/04/15 08:51:00;;;;;;;10.05;3.10;;;12.00;99.90;;;;;;5475472;26;19994;-75
2024/04/15 08:53:26;;;;;;;10.43;2.95;;;12.00;99.90;;;;;;5465749;26;20446;-76
2024/04/15 08:55:52;;;;;;;9.27;2.30;;;12.00;99.90;;;;;;5472705;26;20358;-75
2024/04/15 08:58:18;;;;;;;7.03;2.63;;;12.00;99.90;;;;;;5481468;26;20009;-76
2024/04/15 09:00:45;;;;;;;6.38;2.20;;;12.00;99.90;;;;;;5479419;26;20016;-76
2024/04/15 09:03:11;;;;;;;7.50;2.55;;;12.00;99.90;;;;;;5480004;26;20020;-76
2024/04/15 09:05:37;;;;;;;7.47;2.13;;;12.00;99.90;;;;;;5481106;26;20075;-77
2024/04/15 09:08:04;;;;;;;8.55;2.20;;;12.10;99.90;;;;;;5481348;26;19998;-76
2024/04/15 09:10:29;;;;;;;7.93;2.40;;;12.00;99.90;;;;;;5464337;26;19994;-76
2024/04/15 09:13:00;;;;;;;6.85;2.00;;;12.10;99.90;;;;;;5465207;26;20501;-76
2024/04/15 09:15:27;;;;;;;6.13;2.47;;;12.10;99.90;;;;;;5473534;26;20455;-76
2024/04/15 09:17:53;;;;;;;5.10;1.90;;;12.20;99.90;;;;;;5480174;26;19998;-76
2024/04/15 09:20:20;;;;;;;7.20;2.47;;;12.10;99.90;;;;;;5454009;26;19999;-76
2024/04/15 09:22:46;;;;;;;7.03;1.67;;;12.20;99.90;;;;;;5468627;26;20003;-76
2024/04/15 09:25:13;;;;;;;8.07;2.00;;;12.20;99.90;;;;;;5466929;26;20013;-76
2024/04/15 09:27:39;;;;;;;10.00;2.35;;;12.20;99.90;;;;;;5455921;26;20012;-76
2024/04/15 09:30:05;;;;;;;3.65;1.65;;;12.40;99.90;;;;;;5481378;26;20339;-76
2024/04/15 09:32:31;;;;;;;6.40;1.60;;;12.60;99.90;;;;;;5456603;26;20079;-76
2024/04/15 09:35:01;;;;;;;8.40;2.03;;;12.80;99.90;;;;;;5465789;26;20669;-76
2024/04/15 09:37:28;;;;;;;12.23;2.13;;;12.90;99.90;;;;;;5470963;26;20439;-76
2024/04/15 09:39:54;;;;;;;8.15;1.70;;;13.00;99.90;;;;;;5457021;26;20378;-77
2024/04/15 09:42:20;;;;;;;10.20;1.70;;;13.00;99.90;;;;;;5462993;26;20002;-76
2024/04/15 09:44:49;;;;;;;9.93;1.92;;;12.90;99.90;;;;;;5468130;26;19999;-76
2024/04/15 09:47:15;;;;;;;6.18;1.90;;;12.90;99.90;;;;;;5440154;26;20630;-76
2024/04/15 09:49:42;;;;;;;7.57;1.90;;;12.90;99.90;;;;;;5466296;26;20079;-76
2024/04/15 09:52:18;;;;;;;5.50;1.75;;;12.80;99.90;;;;;;5478373;26;19998;-75
2024/04/15 09:54:45;;;;;;;4.72;1.48;;;12.80;99.90;;;;;;5478371;26;20409;-76
2024/04/15 09:57:18;;;;;;;4.15;1.50;;;12.60;99.90;;;;;;5453936;26;20363;-76
2024/04/15 09:59:46;;;;;;;5.07;1.38;;;12.60;99.90;;;;;;5456786;26;20002;-76
2024/04/15 10:02:24;;;;;;;6.47;1.75;;;12.60;99.90;;;;;;5467604;26;19994;-76
2024/04/15 10:04:57;;;;;;;8.27;1.52;;;12.50;99.90;;;;;;5464728;26;20265;-76
2024/04/15 10:07:26;;;;;;;6.18;1.40;;;12.50;99.90;;;;;;5453916;26;20017;-76
2024/04/15 10:09:52;;;;;;;4.68;1.55;;;12.50;99.90;;;;;;5464122;26;19998;-76
2024/04/15 10:12:19;;;;;;;7.57;1.75;;;12.50;99.90;;;;;;5449590;26;20053;-76
2024/04/15 10:14:45;;;;;;;4.43;1.48;;;12.40;99.90;;;;;;5458267;26;19995;-77
2024/04/15 10:17:10;;;;;;;4.90;1.70;;;12.40;99.90;;;;;;5464446;26;20009;-76
2024/04/15 10:19:36;;;;;;;4.28;1.33;;;12.40;99.90;;;;;;5469637;26;20002;-77
2024/04/15 10:22:02;;;;;;;5.38;1.63;;;12.30;99.90;;;;;;5462948;26;20017;-76
2024/04/15 10:24:28;;;;;;;7.55;1.98;;;12.40;99.90;;;;;;5454866;26;20457;-76
2024/04/15 10:26:54;;;;;;;7.70;1.77;;;12.30;99.90;;;;;;5457005;26;20010;-76
2024/04/15 10:29:26;;;;;;;8.32;1.40;;;12.30;99.90;;;;;;5469211;26;20002;-76
2024/04/15 10:31:54;;;;;;;7.22;1.67;;;12.30;99.90;;;;;;5464270;26;20005;-77
2024/04/15 10:34:25;;;;;;;6.70;1.20;;;12.20;99.90;;;;;;5473754;26;19998;-76
2024/04/15 10:36:52;;;;;;;4.93;1.45;;;12.10;99.90;;;;;;5461929;26;20429;-76
2024/04/15 10:39:18;;;;;;;6.22;1.35;;;12.00;99.90;;;;;;5480568;26;20016;-76
2024/04/15 10:41:45;;;;;;;7.63;1.92;;;12.00;99.90;;;;;;5465022;26;20007;-76
2024/04/15 10:44:11;;;;;;;6.88;1.70;;;11.90;99.90;;;;;;5476409;26;19995;-76
2024/04/15 10:46:46;;;;;;;9.35;1.83;;;11.90;99.90;;;;;;5454513;26;19998;-76
2024/04/15 10:49:14;;;;;;;7.10;1.77;;;11.90;99.90;;;;;;5455589;26;19999;-76
2024/04/15 10:51:39;;;;;;;8.48;1.58;;;11.90;99.90;;;;;;5453546;26;20003;-76
2024/04/15 10:54:05;;;;;;;6.13;1.27;;;11.80;99.90;;;;;;5465691;26;20018;-75
2024/04/15 10:56:31;;;;;;;7.70;2.10;;;11.80;99.90;;;;;;5467953;26;20002;-75
2024/04/15 10:58:56;;;;;;;8.05;1.70;;;11.80;99.90;;;;;;5454256;26;20001;-75
2024/04/15 11:01:22;;;;;;;8.98;1.80;;;11.70;99.90;;;;;;5479626;26;20325;-76
2024/04/15 11:03:50;;;;;;;8.63;1.88;;;11.70;99.90;;;;;;5461761;26;20010;-76
2024/04/15 11:06:19;;;;;;;7.80;1.75;;;11.60;99.90;;;;;;5479148;26;20010;-75
2024/04/15 11:08:45;;;;;;;7.90;1.45;;;11.60;99.90;;;;;;5474648;26;20002;-76
2024/04/15 11:11:12;;;;;;;5.47;1.30;;;11.50;99.90;;;;;;5457954;26;20001;-76
2024/04/15 11:13:41;;;;;;;6.15;1.80;;;11.50;99.90;;;;;;5454326;26;20003;-76
2024/04/15 11:16:13;;;;;;;5.32;1.40;;;11.40;99.90;;;;;;5465966;26;20134;-76
2024/04/15 11:18:38;;;;;;;6.53;1.77;;;11.30;99.90;;;;;;5468755;26;20444;-76
2024/04/15 11:21:06;;;;;;;5.20;1.50;;;11.20;99.90;;;;;;5478482;26;20009;-76
2024/04/15 11:23:32;;;;;;;5.43;1.50;;;11.20;99.90;;;;;;5475253;26;20002;-76
2024/04/15 11:26:01;;;;;;;6.85;2.10;;;11.20;99.90;;;;;;5471086;26;19995;-76
2024/04/15 11:28:28;;;;;;;4.05;1.20;;;11.20;99.90;;;;;;5469903;26;19998;-76
2024/04/15 11:30:55;;;;;;;6.00;1.55;;;11.20;99.90;;;;;;5483141;26;20002;-76
2024/04/15 11:33:22;;;;;;;8.77;1.63;;;11.10;99.90;;;;;;5483776;26;20133;-76
2024/04/15 11:35:50;;;;;;;9.07;1.92;;;11.00;99.90;;;;;;5483836;26;20016;-78
2024/04/15 11:38:15;;;;;;;7.22;1.67;;;11.00;99.90;;;;;;5484091;26;20436;-77
2024/04/15 11:40:41;;;;;;;9.95;1.98;;;10.90;99.90;;;;;;5483265;26;19994;-77
2024/04/15 11:43:07;;;;;;;9.80;1.80;;;10.90;99.90;;;;;;5483677;26;20043;-76
2024/04/15 11:45:33;;;;;;;7.22;1.75;;;10.90;99.90;;;;;;5483558;26;19994;-76
2024/04/15 11:47:58;;;;;;;5.80;1.77;;;10.90;99.90;;;;;;5457422;26;19998;-75
2024/04/15 11:50:24;;;;;;;7.30;1.50;;;10.80;99.90;;;;;;5457105;26;20286;-76
2024/04/15 11:52:51;;;;;;;5.97;1.83;;;10.80;99.90;;;;;;5469203;26;20095;-77
2024/04/15 11:55:17;;;;;;;6.80;1.40;;;10.70;99.90;;;;;;5455683;26;20070;-76
2024/04/15 11:57:44;;;;;;;8.77;1.60;;;10.60;99.90;;;;;;5465718;26;20536;-76
2024/04/15 12:00:11;;;;;;;5.60;1.40;;;10.50;99.90;;;;;;5471100;26;20074;-77
2024/04/15 12:02:41;;;;;;;6.82;1.42;;;10.40;99.90;;;;;;5464349;26;19999;-76
2024/04/15 12:05:07;;;;;;;5.90;1.80;;;10.30;99.90;;;;;;5481936;26;20009;-76
2024/04/15 12:07:33;;;;;;;4.50;1.70;;;10.30;99.90;;;;;;5472815;26;19997;-76
2024/04/15 12:10:00;;;;;;;6.20;1.80;;;10.30;99.90;;;;;;5474016;26;20690;-78
2024/04/15 12:12:25;;;;;;;5.25;1.33;;;10.30;99.90;;;;;;5457191;26;20346;-77
2024/04/15 12:14:51;;;;;;;8.30;1.80;;;10.30;99.90;;;;;;5471141;26;19998;-77
2024/04/15 12:17:17;;;;;;;7.65;2.35;;;10.30;99.90;;;;;;5477335;26;20020;-77
2024/04/15 12:19:42;;;;;;;9.02;1.95;;;10.30;99.90;;;;;;5476875;26;19998;-76
2024/04/15 12:22:08;;;;;;;6.38;1.60;;;10.40;99.90;;;;;;5456254;26;20099;-76
2024/04/15 12:24:34;;;;;;;5.43;1.65;;;10.60;99.90;;;;;;5477583;26;20770;-76
2024/04/15 12:26:59;;;;;;;4.55;1.40;;;10.80;99.90;;;;;;5452197;26;20461;-77
2024/04/15 12:29:25;;;;;;;4.70;1.52;;;10.90;99.90;;;;;;5479854;26;19998;-77
2024/04/15 12:31:51;;;;;;;5.45;1.75;;;10.90;99.90;;;;;;5481865;26;19998;-76
2024/04/15 12:34:17;;;;;;;6.85;2.10;;;11.00;99.90;;;;;;5483057;26;20560;-77
2024/04/15 12:36:43;;;;;;;6.18;1.52;;;11.00;99.90;;;;;;5483067;26;20009;-76
2024/04/15 12:39:09;;;;;;;5.22;1.40;;;10.90;99.90;;;;;;5478671;26;20106;-77